Time;durP1;ratioP1;P1;durP2;ratioP2;P2;SDS_P1;SDS_P2;PMS_P1;PMS_P2;Temp;Humidity;BMP_temperature;BMP_pressure;BME280_temperature;BME280_humidity;BME280_pressure;Samples;Min_cycle;Max_cycle;Signal;HPM_P1;HPM_P2
2022/11/04 00:00:05;;;;;;;;;;;;;;;-143.48;91.07;77738.53;5134993;27;19919;-31
2022/11/04 00:02:31;;;;;;;;;;;;;;;-143.48;91.47;77740.50;5135191;27;19911;-29
2022/11/04 00:04:56;;;;;;;;;;;;;;;-143.48;91.70;77744.47;5135283;27;19919;-29
2022/11/04 00:10:05;;;;;;;;;;;;;;;-143.48;91.01;77746.44;5134849;27;19964;-31
2022/11/04 00:12:30;;;;;;;;;;;;;;;-143.48;91.29;77760.34;5135469;27;19911;-31
2022/11/04 00:17:18;;;;;;;;;;;;;;;-143.48;91.51;77766.28;5134745;27;19930;-30
2022/11/04 00:17:40;;;;;;;;;;;;;;;-143.48;90.35;77774.22;5134773;28;20386;-30
2022/11/04 00:33:48;;;;;;;;;;;;;;;-143.48;90.66;77798.00;5134334;28;19957;-31
2022/11/04 00:36:13;;;;;;;;;;;;;;;-143.48;90.48;77800.00;5133825;28;19916;-31
2022/11/04 00:38:38;;;;;;;;;;;;;;;-143.48;90.07;77800.00;5134274;28;19912;-30
2022/11/04 00:41:24;;;;;;;;;;;;;;;-143.48;90.07;77807.94;5133282;28;19915;-30
2022/11/04 00:43:48;;;;;;;;;;;;;;;-143.48;89.83;77801.97;5131942;28;19918;-30
2022/11/04 00:46:13;;;;;;;;;;;;;;;-143.48;89.49;77803.97;5132042;28;19987;-30
2022/11/04 00:48:39;;;;;;;;;;;;;;;-143.48;89.30;77809.91;5132042;28;19922;-30
2022/11/04 00:51:04;;;;;;;;;;;;;;;-143.48;89.68;77827.75;5132210;28;19912;-30
2022/11/04 00:53:29;;;;;;;;;;;;;;;-143.48;90.13;77837.66;5132385;28;20363;-29
2022/11/04 00:55:57;;;;;;;;;;;;;;;-143.48;90.01;77843.63;5132654;28;19938;-31
2022/11/04 00:58:23;;;;;;;;;;;;;;;-143.48;90.76;77855.50;5134411;28;19912;-31
2022/11/04 01:00:48;;;;;;;;;;;;;;;-143.48;90.32;77857.50;5134320;27;20010;-32
2022/11/04 01:03:13;;;;;;;;;;;;;;;-143.48;90.71;77857.50;5134582;28;19911;-31
2022/11/04 01:05:38;;;;;;;;;;;;;;;-143.48;90.05;77861.47;5134600;28;19919;-31
2022/11/04 01:08:03;;;;;;;;;;;;;;;-143.48;90.62;77855.50;5134803;28;19915;-31
2022/11/04 01:10:29;;;;;;;;;;;;;;;-143.48;90.52;77867.41;5134564;28;20005;-31
2022/11/04 01:12:54;;;;;;;;;;;;;;;-143.48;90.19;77873.38;5134813;28;19917;-31
2022/11/04 01:15:19;;;;;;;;;;;;;;;-143.48;90.36;77879.31;5134703;28;20234;-31
2022/11/04 01:17:44;;;;;;;;;;;;;;;-143.48;89.99;77887.25;5134235;28;19911;-31
2022/11/04 01:20:10;;;;;;;;;;;;;;;-143.48;89.79;77887.25;5134164;28;19940;-30
2022/11/04 01:22:35;;;;;;;;;;;;;;;-143.48;89.60;77901.13;5135737;27;19920;-30
2022/11/04 01:25:00;;;;;;;;;;;;;;;-143.48;90.59;77909.06;5137916;27;19912;-30
2022/11/04 01:27:25;;;;;;;;;;;;;;;-143.48;90.39;77903.09;5137895;27;19911;-31
2022/11/04 01:29:53;;;;;;;;;;;;;;;-143.48;90.30;77911.03;5138155;27;19911;-30
2022/11/04 01:32:19;;;;;;;;;;;;;;;-143.48;90.16;77911.03;5137797;27;19954;-31
2022/11/04 01:34:44;;;;;;;;;;;;;;;-143.48;90.24;77911.03;5138224;27;20011;-31
2022/11/04 01:37:10;;;;;;;;;;;;;;;-143.48;90.14;77911.03;5137960;27;19920;-30
2022/11/04 01:39:35;;;;;;;;;;;;;;;-143.48;90.14;77938.81;5137655;27;19912;-29
2022/11/04 01:42:00;;;;;;;;;;;;;;;-143.48;89.71;77936.81;5138124;27;19919;-31
2022/11/04 01:44:40;;;;;;;;;;;;;;;-143.48;89.18;77930.88;5137842;27;20255;-31
2022/11/04 01:47:13;;;;;;;;;;;;;;;-143.48;88.92;77940.78;5137498;27;19911;-31
2022/11/04 01:49:38;;;;;;;;;;;;;;;-143.48;89.42;77938.81;5137447;27;20389;-31
2022/11/04 01:52:12;;;;;;;;;;;;;;;-143.48;89.78;77946.72;5137351;27;19911;-31
2022/11/04 01:54:39;;;;;;;;;;;;;;;-143.48;89.04;77946.72;5137882;27;19916;-31
2022/11/04 01:57:06;;;;;;;;;;;;;;;-143.48;89.38;77942.78;5137310;27;19934;-30
2022/11/04 01:59:34;;;;;;;;;;;;;;;-143.48;89.01;77958.63;5137809;27;19912;-31
2022/11/04 02:01:59;;;;;;;;;;;;;;;-143.48;89.99;77974.50;5137147;27;19915;-30
2022/11/04 02:04:25;;;;;;;;;;;;;;;-143.48;90.11;77974.50;5137046;27;19912;-29
2022/11/04 02:06:55;;;;;;;;;;;;;;;-143.48;90.33;77972.50;5137107;27;19996;-30
2022/11/04 02:09:22;;;;;;;;;;;;;;;-143.48;90.25;77982.44;5137630;27;19919;-30
2022/11/04 02:14:33;;;;;;;;;;;;;;;-143.48;89.66;77988.38;5136618;27;19942;-29
2022/11/04 02:17:18;;;;;;;;;;;;;;;-143.48;88.70;77998.28;5136444;27;19911;-30
2022/11/04 02:19:53;;;;;;;;;;;;;;;-143.48;87.16;78016.13;5118324;27;19912;-29
2022/11/04 02:22:18;;;;;;;;;;;;;;;-143.48;87.36;78018.13;5136350;27;19912;-30
2022/11/04 02:24:58;;;;;;;;;;;;;;;-143.48;87.35;78030.03;5136538;27;19912;-30
2022/11/04 02:27:34;;;;;;;;;;;;;;;-143.48;87.94;78037.94;5136198;27;19918;-29
2022/11/04 02:30:04;;;;;;;;;;;;;;;-143.48;87.58;78043.91;5136820;27;20276;-30
2022/11/04 02:32:37;;;;;;;;;;;;;;;-143.48;87.49;78051.84;5136826;27;20353;-29
2022/11/04 02:35:06;;;;;;;;;;;;;;;-143.48;87.49;78065.72;5136741;27;20269;-30
2022/11/04 02:37:46;;;;;;;;;;;;;;;-143.48;87.17;78059.75;5136661;27;19934;-29
2022/11/04 02:40:17;;;;;;;;;;;;;;;-143.48;87.22;78081.56;5136106;27;19980;-30
2022/11/04 02:42:56;;;;;;;;;;;;;;;-143.48;87.84;78093.47;5136663;27;19912;-29
2022/11/04 02:45:40;;;;;;;;;;;;;;;-143.48;88.04;78093.47;5136942;27;19964;-29
2022/11/04 02:48:16;;;;;;;;;;;;;;;-143.48;87.86;78085.53;5136553;27;20278;-30
2022/11/04 02:50:45;;;;;;;;;;;;;;;-143.48;87.96;78075.63;5136747;27;19967;-29
2022/11/04 02:53:16;;;;;;;;;;;;;;;-143.48;87.50;78075.63;5136209;27;19956;-30
2022/11/04 02:55:44;;;;;;;;;;;;;;;-143.48;87.52;78083.56;5136601;27;19923;-29
2022/11/04 02:58:12;;;;;;;;;;;;;;;-143.48;87.52;78075.63;5136022;27;20369;-29
2022/11/04 03:00:39;;;;;;;;;;;;;;;-143.48;87.53;78081.56;5136528;27;20009;-29
2022/11/04 03:03:08;;;;;;;;;;;;;;;-143.48;87.60;78079.59;5136297;27;19912;-29
2022/11/04 03:05:36;;;;;;;;;;;;;;;-143.48;86.96;78081.56;5136182;27;19915;-29
2022/11/04 03:08:04;;;;;;;;;;;;;;;-143.48;86.90;78103.41;5135772;27;19911;-29
2022/11/04 03:10:34;;;;;;;;;;;;;;;-143.48;87.31;78097.44;5135837;27;19916;-29
2022/11/04 03:13:02;;;;;;;;;;;;;;;-143.48;87.20;78103.41;5136059;27;19960;-29
2022/11/04 03:15:30;;;;;;;;;;;;;;;-143.48;87.28;78101.41;5136322;27;19923;-29
2022/11/04 03:17:55;;;;;;;;;;;;;;;-143.48;87.91;78111.31;5135663;27;19911;-29
2022/11/04 03:20:23;;;;;;;;;;;;;;;-143.48;88.15;78111.31;5136155;27;20269;-29
2022/11/04 03:22:48;;;;;;;;;;;;;;;-143.48;88.17;78119.25;5135591;27;19971;-29
2022/11/04 03:25:13;;;;;;;;;;;;;;;-143.48;88.36;78137.09;5135604;27;20010;-29
2022/11/04 03:27:53;;;;;;;;;;;;;;;-143.48;88.91;78158.91;5135710;27;20354;-36
2022/11/04 03:30:19;;;;;;;;;;;;;;;-143.48;89.78;78154.94;5135484;27;19960;-29
2022/11/04 03:32:53;;;;;;;;;;;;;;;-143.48;90.04;78156.94;5135925;27;19918;-29
2022/11/04 03:35:19;;;;;;;;;;;;;;;-143.48;90.45;78152.97;5135305;27;19916;-30
2022/11/04 03:37:46;;;;;;;;;;;;;;;-143.48;90.45;78152.97;5135366;27;19911;-30
2022/11/04 03:40:12;;;;;;;;;;;;;;;-143.48;90.15;78156.94;5135270;27;20138;-30
2022/11/04 03:42:40;;;;;;;;;;;;;;;-143.48;89.98;78147.03;5135709;27;19912;-30
2022/11/04 03:45:06;;;;;;;;;;;;;;;-143.48;89.26;78151.00;5135015;27;19912;-30
2022/11/04 03:47:31;;;;;;;;;;;;;;;-143.48;88.97;78151.00;5135202;27;20002;-30
2022/11/04 03:50:00;;;;;;;;;;;;;;;-143.48;88.95;78156.94;5135117;27;19965;-30
2022/11/04 03:52:25;;;;;;;;;;;;;;;-143.48;88.94;78156.94;5135063;27;20381;-30
2022/11/04 03:54:50;;;;;;;;;;;;;;;-143.48;88.40;78147.03;5134958;27;19941;-30
2022/11/04 03:57:19;;;;;;;;;;;;;;;-143.48;88.30;78152.97;5135008;27;19911;-30
2022/11/04 03:59:47;;;;;;;;;;;;;;;-143.48;88.15;78151.00;5135270;27;19912;-30
2022/11/04 04:02:16;;;;;;;;;;;;;;;-143.48;88.31;78162.88;5134849;27;19926;-30
2022/11/04 04:04:50;;;;;;;;;;;;;;;-143.48;88.38;78149.00;5135503;27;19912;-30
2022/11/04 04:07:18;;;;;;;;;;;;;;;-143.48;88.22;78164.88;5134941;27;19916;-30
2022/11/04 04:09:53;;;;;;;;;;;;;;;-143.48;88.85;78174.78;5135184;27;20311;-30
2022/11/04 04:12:37;;;;;;;;;;;;;;;-143.48;88.91;78182.72;5134898;27;19912;-30
2022/11/04 04:15:16;;;;;;;;;;;;;;;-143.48;89.73;78190.66;5134435;27;19923;-30
2022/11/04 04:17:45;;;;;;;;;;;;;;;-143.48;89.46;78194.63;5135352;28;20018;-30
2022/11/04 04:20:15;;;;;;;;;;;;;;;-143.48;89.53;78192.63;5135061;28;19934;-30
2022/11/04 04:22:42;;;;;;;;;;;;;;;-143.48;89.39;78206.50;5135310;28;20389;-30
2022/11/04 04:27:55;;;;;;;;;;;;;;;-143.48;89.83;78216.44;5135284;28;19920;-29
2022/11/04 04:30:20;;;;;;;;;;;;;;;-143.48;89.78;78222.38;5134953;28;19912;-30
2022/11/04 04:32:47;;;;;;;;;;;;;;;-143.48;89.59;78228.31;5134651;28;19911;-30
2022/11/04 04:44:58;;;;;;;;;;;;;;;-143.48;89.31;78224.38;5135159;28;20365;-30
2022/11/04 04:46:14;;;;;;;;;;;;;;;-143.48;89.23;78236.25;5134862;28;19922;-30
2022/11/04 04:48:39;;;;;;;;;;;;;;;-143.48;89.62;78242.22;5135036;28;20277;-30
2022/11/04 04:51:04;;;;;;;;;;;;;;;-143.48;89.61;78244.19;5134494;28;19918;-29
2022/11/04 04:53:29;;;;;;;;;;;;;;;-143.48;90.01;78250.16;5135022;28;20009;-30
2022/11/04 04:55:55;;;;;;;;;;;;;;;-143.48;89.48;78248.16;5134329;27;19919;-30
2022/11/04 04:58:20;;;;;;;;;;;;;;;-143.48;89.59;78254.09;5137897;27;19918;-30
2022/11/04 05:00:45;;;;;;;;;;;;;;;-143.48;89.57;78258.06;5138306;27;19912;-30
2022/11/04 05:03:10;;;;;;;;;;;;;;;-143.48;89.52;78262.03;5138358;27;20000;-30
2022/11/04 05:05:35;;;;;;;;;;;;;;;-143.48;89.18;78258.06;5138291;27;19918;-30
2022/11/04 05:08:05;;;;;;;;;;;;;;;-143.48;89.31;78268.00;5138532;27;19911;-30
2022/11/04 05:10:30;;;;;;;;;;;;;;;-143.48;89.23;78271.97;5138409;27;19954;-35
2022/11/04 05:15:39;;;;;;;;;;;;;;;-143.48;89.10;78262.03;5137964;27;19938;-30
2022/11/04 05:18:04;;;;;;;;;;;;;;;-143.48;89.10;78260.06;5138070;27;20277;-29
2022/11/04 05:20:32;;;;;;;;;;;;;;;-143.48;88.51;78254.09;5117490;27;19924;-30
2022/11/04 05:22:58;;;;;;;;;;;;;;;-143.48;88.91;78264.03;5135865;27;19911;-30
2022/11/04 05:25:23;;;;;;;;;;;;;;;-143.48;89.05;78258.06;5135785;27;20002;-31
2022/11/04 05:27:48;;;;;;;;;;;;;;;-143.48;89.17;78248.16;5135781;27;20026;-30
2022/11/04 05:30:13;;;;;;;;;;;;;;;-143.48;88.60;78244.19;5117195;27;19911;-30
2022/11/04 05:32:38;;;;;;;;;;;;;;;-143.48;88.09;78264.03;5135552;27;19915;-30
2022/11/04 05:35:04;;;;;;;;;;;;;;;-143.48;88.61;78268.00;5135880;27;20014;-30
2022/11/04 05:37:29;;;;;;;;;;;;;;;-143.48;88.74;78269.97;5136176;27;19922;-30
2022/11/04 05:39:55;;;;;;;;;;;;;;;-143.48;89.59;78262.03;5136292;27;19916;-30
2022/11/04 05:42:23;;;;;;;;;;;;;;;-143.48;89.23;78268.00;5118552;27;19919;-34
2022/11/04 05:44:49;;;;;;;;;;;;;;;-143.48;89.41;78266.00;5118504;27;19912;-30
2022/11/04 05:47:14;;;;;;;;;;;;;;;-143.48;89.28;78273.94;5137779;27;19918;-30
2022/11/04 05:49:39;;;;;;;;;;;;;;;-143.48;88.79;78279.88;5137739;27;20258;-29
2022/11/04 05:52:04;;;;;;;;;;;;;;;-143.48;88.89;78291.78;5137381;27;20000;-29
2022/11/04 05:54:29;;;;;;;;;;;;;;;-143.48;88.48;78315.59;5137816;27;19933;-30
2022/11/04 05:56:55;;;;;;;;;;;;;;;-143.48;89.03;78311.63;5137443;27;20000;-30
2022/11/04 05:59:20;;;;;;;;;;;;;;;-143.48;89.09;78315.59;5137554;27;19919;-30
2022/11/04 06:01:45;;;;;;;;;;;;;;;-143.48;89.14;78311.63;5137751;27;19911;-30
2022/11/04 06:04:15;;;;;;;;;;;;;;;-143.48;88.80;78317.56;5137984;27;19946;-29
2022/11/04 06:06:40;;;;;;;;;;;;;;;-143.48;89.30;78323.53;5137351;27;19922;-30
2022/11/04 06:09:05;;;;;;;;;;;;;;;-143.48;89.26;78315.59;5136777;27;20293;-30
2022/11/04 06:11:32;;;;;;;;;;;;;;;-143.48;89.11;78317.56;5137301;27;19931;-30
2022/11/04 06:13:57;;;;;;;;;;;;;;;-143.48;88.97;78319.56;5137426;27;19912;-31
2022/11/04 06:16:23;;;;;;;;;;;;;;;-143.48;88.82;78333.44;5136872;27;20373;-30
2022/11/04 06:18:48;;;;;;;;;;;;;;;-143.48;88.97;78349.31;5136936;27;19911;-30
2022/11/04 06:21:13;;;;;;;;;;;;;;;-143.48;89.35;78367.16;5137074;27;19919;-30
2022/11/04 06:23:38;;;;;;;;;;;;;;;-143.48;89.89;78396.91;5136812;27;20342;-30
2022/11/04 06:26:04;;;;;;;;;;;;;;;-143.48;90.05;78396.91;5136990;27;19918;-30
2022/11/04 06:28:29;;;;;;;;;;;;;;;-143.48;90.38;78396.91;5136633;27;20292;-30
2022/11/04 06:30:59;;;;;;;;;;;;;;;-143.48;90.52;78402.84;5136616;27;19922;-30
2022/11/04 06:33:24;;;;;;;;;;;;;;;-143.48;90.60;78394.91;5137487;27;19919;-30
2022/11/04 06:35:49;;;;;;;;;;;;;;;-143.48;90.32;78406.81;5136700;27;19920;-30
2022/11/04 06:38:14;;;;;;;;;;;;;;;-143.48;90.14;78414.75;5136730;27;19911;-30
2022/11/04 06:40:40;;;;;;;;;;;;;;;-143.48;90.10;78418.72;5136462;27;19911;-30
2022/11/04 06:43:05;;;;;;;;;;;;;;;-143.48;90.21;78418.72;5136698;27;19919;-30
2022/11/04 06:45:30;;;;;;;;;;;;;;;-143.48;90.21;78418.72;5136284;27;19912;-30
2022/11/04 06:47:55;;;;;;;;;;;;;;;-143.48;89.93;78424.66;5136329;27;19916;-30
2022/11/04 06:50:20;;;;;;;;;;;;;;;-143.48;89.49;78418.72;5136468;27;20384;-30
2022/11/04 06:52:45;;;;;;;;;;;;;;;-143.48;89.56;78396.91;5136165;27;20383;-30
2022/11/04 06:55:11;;;;;;;;;;;;;;;-143.48;88.97;78402.84;5136296;27;19915;-30
2022/11/04 06:57:36;;;;;;;;;;;;;;;-143.48;88.82;78396.91;5136420;27;19916;-30
2022/11/04 07:00:02;;;;;;;;;;;;;;;-143.48;88.35;78392.94;5136059;27;20023;-30
2022/11/04 07:02:27;;;;;;;;;;;;;;;-143.48;88.50;78359.22;5136210;27;19911;-30
2022/11/04 07:04:53;;;;;;;;;;;;;;;-143.48;86.88;78341.38;5117285;27;19919;-29
2022/11/04 07:07:18;;;;;;;;;;;;;;;-143.48;86.38;78339.38;5135800;27;19916;-30
2022/11/04 07:09:43;;;;;;;;;;;;;;;-143.48;86.12;78345.34;5135872;27;19934;-30
2022/11/04 07:12:09;;;;;;;;;;;;;;;-143.48;85.99;78369.13;5136245;27;19915;-30
2022/11/04 07:14:34;;;;;;;;;;;;;;;-143.48;85.80;78333.44;5135838;27;19963;-30
2022/11/04 07:16:59;;;;;;;;;;;;;;;-143.48;85.63;78321.53;5135801;27;20010;-30
2022/11/04 07:19:24;;;;;;;;;;;;;;;-143.48;85.14;78321.53;5135566;27;19918;-30
2022/11/04 07:21:50;;;;;;;;;;;;;;;-143.48;85.04;78319.56;5135801;27;19918;-30
2022/11/04 07:24:15;;;;;;;;;;;;;;;-143.48;85.07;78325.50;5135241;27;19911;-30
2022/11/04 07:26:41;;;;;;;;;;;;;;;-143.48;84.47;78311.63;5135304;27;19912;-31
2022/11/04 07:29:07;;;;;;;;;;;;;;;-143.48;84.67;78323.53;5135537;27;19911;-30
2022/11/04 07:31:32;;;;;;;;;;;;;;;-143.48;84.37;78307.66;5135804;27;20085;-32
2022/11/04 07:33:58;;;;;;;;;;;;;;;-143.48;83.48;78293.78;5116486;27;19911;-30
2022/11/04 07:36:23;;;;;;;;;;;;;;;-143.48;82.99;78317.56;5135692;27;19912;-30
2022/11/04 07:38:49;;;;;;;;;;;;;;;-143.48;83.20;78295.75;5134441;27;19988;-30
2022/11/04 07:41:14;;;;;;;;;;;;;;;-143.48;82.57;78285.84;5133704;27;19912;-30
2022/11/04 07:43:39;;;;;;;;;;;;;;;-143.48;80.64;78180.72;5133696;27;19916;-30
2022/11/04 07:46:06;;;;;;;;;;;;;;;-143.48;70.74;77917.00;5135095;27;19911;-30
2022/11/04 07:48:31;;;;;;;;;;;;;;;-143.48;63.57;77801.97;5135175;27;19912;-30
2022/11/04 07:50:58;;;;;;;;;;;;;;;-143.48;56.95;77621.53;5135142;27;19971;-30
2022/11/04 07:53:25;;;;;;;;;;;;;;;-143.48;53.73;77510.50;5135388;27;19982;-31
2022/11/04 07:55:50;;;;;;;;;;;;;;;-143.48;62.84;77924.91;5116285;27;19919;-31
2022/11/04 07:58:19;;;;;;;;;;;;;;;-143.48;68.76;78045.88;5135344;27;19915;-30
2022/11/04 08:00:44;;;;;;;;;;;;;;;-143.48;70.96;78075.63;5116168;27;19911;-31
2022/11/04 08:03:09;;;;;;;;;;;;;;;-143.48;71.45;78091.50;5135623;27;19915;-31
2022/11/04 08:05:35;;;;;;;;;;;;;;;-143.48;72.63;78101.41;5134992;27;19911;-30
2022/11/04 08:08:00;;;;;;;;;;;;;;;-143.48;73.86;78145.03;5135030;27;19947;-30
2022/11/04 08:10:25;;;;;;;;;;;;;;;-143.48;74.13;78149.00;5134855;27;19998;-30
2022/11/04 08:12:51;;;;;;;;;;;;;;;-143.48;74.64;78151.00;5133618;27;19912;-32
2022/11/04 08:15:16;;;;;;;;;;;;;;;-143.48;75.88;78147.03;5134162;27;19980;-31
2022/11/04 08:17:41;;;;;;;;;;;;;;;-143.48;75.85;78168.84;5134496;27;19911;-32
2022/11/04 08:20:08;;;;;;;;;;;;;;;-143.48;76.46;78170.81;5133501;28;19911;-31
2022/11/04 08:22:33;;;;;;;;;;;;;;;-143.48;75.89;78178.75;5134458;28;19911;-31
2022/11/04 08:24:58;;;;;;;;;;;;;;;-143.48;75.21;78156.94;5134818;28;20253;-31
2022/11/04 08:27:24;;;;;;;;;;;;;;;-143.48;75.06;78145.03;5134978;28;19961;-31
2022/11/04 08:29:49;;;;;;;;;;;;;;;-143.48;75.20;78152.97;5134864;28;19915;-31
2022/11/04 08:32:14;;;;;;;;;;;;;;;-143.48;75.50;78137.09;5137709;27;19911;-32
2022/11/04 08:34:40;;;;;;;;;;;;;;;-143.48;74.30;78101.41;5139324;27;20365;-33
2022/11/04 08:37:06;;;;;;;;;;;;;;;-143.48;74.18;78095.47;5120423;27;19912;-32
2022/11/04 08:39:31;;;;;;;;;;;;;;;-143.48;73.14;78024.06;5139318;27;20265;-32
2022/11/04 08:41:57;;;;;;;;;;;;;;;-143.48;72.30;78028.03;5120659;27;19950;-32
2022/11/04 08:44:22;;;;;;;;;;;;;;;-143.48;71.43;78020.09;5120773;27;19956;-33
2022/11/04 08:46:48;;;;;;;;;;;;;;;-143.48;69.80;77962.59;5120173;27;20423;-31
2022/11/04 08:49:13;;;;;;;;;;;;;;;-143.48;71.20;78069.69;5139162;27;19911;-32
2022/11/04 08:51:40;;;;;;;;;;;;;;;-143.48;73.01;78067.69;5138717;27;20379;-31
2022/11/04 08:54:05;;;;;;;;;;;;;;;-143.48;73.69;78089.50;5138621;27;20012;-31
2022/11/04 08:56:31;;;;;;;;;;;;;;;-143.48;74.88;78093.47;5138367;27;19916;-31
2022/11/04 08:58:57;;;;;;;;;;;;;;;-143.48;76.34;78117.28;5138660;27;20365;-32
2022/11/04 09:01:23;;;;;;;;;;;;;;;-143.48;76.23;78113.31;5138267;27;19998;-31
2022/11/04 09:03:48;;;;;;;;;;;;;;;-143.48;76.31;78095.47;5138208;27;19918;-32
2022/11/04 09:06:15;;;;;;;;;;;;;;;-143.48;77.03;78089.50;5138066;27;19915;-31
2022/11/04 09:08:42;;;;;;;;;;;;;;;-143.48;74.17;78103.41;5136831;27;19918;-32
2022/11/04 09:11:08;;;;;;;;;;;;;;;-143.48;74.38;78099.44;5138380;27;20284;-31
2022/11/04 09:13:34;;;;;;;;;;;;;;;-143.48;73.77;78073.66;5138098;27;19919;-31
2022/11/04 09:15:59;;;;;;;;;;;;;;;-143.48;73.27;78057.78;5137862;27;19924;-31
2022/11/04 09:18:24;;;;;;;;;;;;;;;-143.48;71.38;78022.09;5137875;27;19955;-30
2022/11/04 09:20:49;;;;;;;;;;;;;;;-143.48;71.00;78055.81;5137600;27;20369;-31
2022/11/04 09:23:14;;;;;;;;;;;;;;;-143.48;69.80;77978.47;5138614;27;19912;-31
2022/11/04 09:25:40;;;;;;;;;;;;;;;-143.48;68.13;77873.38;5138739;27;19911;-31
2022/11/04 09:28:05;;;;;;;;;;;;;;;-143.48;55.17;77385.59;5136172;27;19911;-31
2022/11/04 09:30:30;;;;;;;;;;;;;;;-143.48;52.68;77512.47;5135509;27;19918;-30
2022/11/04 09:32:57;;;;;;;;;;;;;;;-143.48;61.12;77835.69;5136344;27;19927;-31
2022/11/04 09:35:22;;;;;;;;;;;;;;;-143.48;65.26;77962.59;5136875;27;19993;-31
2022/11/04 09:37:47;;;;;;;;;;;;;;;-143.48;66.76;77992.34;5137215;27;19915;-31
2022/11/04 09:40:14;;;;;;;;;;;;;;;-143.48;68.07;77986.41;5118977;27;19922;-32
2022/11/04 09:42:48;;;;;;;;;;;;;;;-143.48;68.49;78057.78;5136737;27;19922;-31
2022/11/04 09:45:17;;;;;;;;;;;;;;;-143.48;69.09;78030.03;5137929;27;20362;-30
2022/11/04 09:47:43;;;;;;;;;;;;;;;-143.48;67.82;77964.56;5137470;27;19935;-30
2022/11/04 09:50:15;;;;;;;;;;;;;;;-143.48;62.51;77714.72;5137152;27;20270;-30
2022/11/04 09:52:43;;;;;;;;;;;;;;;-143.48;47.35;77054.47;5137575;27;19968;-30
2022/11/04 09:55:26;;;;;;;;;;;;;;;-143.48;41.03;76812.63;5137056;27;19916;-32
2022/11/04 09:57:56;;;;;;;;;;;;;;;-143.48;40.32;76818.56;5137566;27;20250;-32
2022/11/04 10:00:22;;;;;;;;;;;;;;;-143.48;37.76;76691.69;5137481;27;19996;-32
2022/11/04 10:02:52;;;;;;;;;;;;;;;-143.48;38.22;76874.06;5137414;27;19911;-32
2022/11/04 10:05:18;;;;;;;;;;;;;;;-143.48;40.56;76975.19;5137384;27;19911;-32
2022/11/04 10:07:48;;;;;;;;;;;;;;;-143.48;45.78;77302.31;5136768;27;19934;-32
2022/11/04 10:10:27;;;;;;;;;;;;;;;-143.48;50.04;77544.19;5137756;27;19960;-31
2022/11/04 10:13:04;;;;;;;;;;;;;;;-143.48;55.23;77669.13;5137388;27;19912;-31
2022/11/04 10:15:29;;;;;;;;;;;;;;;-143.48;44.23;77084.22;5136993;27;19935;-31
2022/11/04 10:17:57;;;;;;;;;;;;;;;-143.48;48.25;77480.75;5136550;27;19918;-30
2022/11/04 10:20:41;;;;;;;;;;;;;;;-143.48;52.82;77702.84;5136013;27;20015;-31
2022/11/04 10:23:18;;;;;;;;;;;;;;;-143.48;55.64;77807.94;5136174;27;19912;-32
2022/11/04 10:25:46;;;;;;;;;;;;;;;-143.48;50.83;77540.25;5135837;27;20281;-31
2022/11/04 10:28:15;;;;;;;;;;;;;;;-143.48;51.20;77488.69;5135993;27;19933;-32
2022/11/04 10:30:41;;;;;;;;;;;;;;;-143.48;53.36;77677.06;5136536;27;19916;-30
2022/11/04 10:33:15;;;;;;;;;;;;;;;-143.48;57.78;77909.06;5136934;27;19911;-32
2022/11/04 10:35:47;;;;;;;;;;;;;;;-143.48;61.07;77976.47;5137102;27;20265;-31
2022/11/04 10:38:16;;;;;;;;;;;;;;;-143.48;62.65;77974.50;5136729;27;19911;-30
2022/11/04 10:40:47;;;;;;;;;;;;;;;-143.48;63.64;77968.53;5136550;27;19950;-30
2022/11/04 10:43:15;;;;;;;;;;;;;;;-143.48;62.53;77966.56;5136810;27;19911;-30
2022/11/04 10:46:00;;;;;;;;;;;;;;;-143.48;63.61;77968.53;5134961;27;19915;-31
2022/11/04 10:48:33;;;;;;;;;;;;;;;-143.48;62.10;77903.09;5082529;27;20386;-30
2022/11/04 10:50:58;;;;;;;;;;;;;;;-143.48;62.33;77940.78;5136508;27;19911;-35
2022/11/04 10:53:25;;;;;;;;;;;;;;;-143.48;59.74;77788.09;5136142;27;19911;-31
2022/11/04 10:55:50;;;;;;;;;;;;;;;-143.48;60.72;77809.91;5134597;27;19919;-31
2022/11/04 10:58:26;;;;;;;;;;;;;;;-143.48;60.33;77815.84;5135557;27;19918;-31
2022/11/04 11:00:53;;;;;;;;;;;;;;;-143.48;60.95;77833.69;5136571;27;20322;-31
2022/11/04 11:03:32;;;;;;;;;;;;;;;-143.48;62.67;77835.69;5135502;27;19918;-31
2022/11/04 11:06:09;;;;;;;;;;;;;;;-143.48;53.27;77538.25;5136196;27;19911;-32
2022/11/04 11:08:36;;;;;;;;;;;;;;;-143.48;48.68;77343.94;5134550;27;19911;-31
2022/11/04 11:11:01;;;;;;;;;;;;;;;-143.48;48.41;77409.38;5135267;27;19912;-39
2022/11/04 11:13:33;;;;;;;;;;;;;;;-143.48;53.36;77696.88;5135357;27;19998;-30
2022/11/04 11:16:06;;;;;;;;;;;;;;;-143.48;56.65;77770.25;5133957;27;19919;-30
2022/11/04 11:18:31;;;;;;;;;;;;;;;-143.48;57.56;77821.81;5134372;27;19947;-31
2022/11/04 11:21:07;;;;;;;;;;;;;;;-143.48;57.05;77867.41;5135478;27;20258;-30
2022/11/04 11:23:37;;;;;;;;;;;;;;;-143.48;51.78;77619.56;5134980;27;19998;-32
2022/11/04 11:26:04;;;;;;;;;;;;;;;-143.48;55.29;77796.03;5134829;27;19912;-31
2022/11/04 11:28:36;;;;;;;;;;;;;;;-143.48;58.02;77879.31;5135402;27;20326;-31
2022/11/04 11:31:04;;;;;;;;;;;;;;;-143.48;58.27;77889.22;5135158;27;19912;-31
2022/11/04 11:33:36;;;;;;;;;;;;;;;-143.48;59.07;77907.06;5133651;27;19923;-31
2022/11/04 11:36:13;;;;;;;;;;;;;;;-143.48;60.48;77907.06;5135058;27;19947;-31
2022/11/04 11:38:50;;;;;;;;;;;;;;;-143.48;59.46;77911.03;5134128;27;19918;-31
2022/11/04 11:41:17;;;;;;;;;;;;;;;-143.48;60.45;77843.63;5135253;27;19935;-31
2022/11/04 11:43:44;;;;;;;;;;;;;;;-143.48;59.36;77835.69;5135261;27;19964;-31
2022/11/04 11:46:10;;;;;;;;;;;;;;;-143.48;62.09;77865.44;5131859;27;19915;-31
2022/11/04 11:48:38;;;;;;;;;;;;;;;-143.48;62.30;77883.28;5133698;27;19919;-32
2022/11/04 11:51:04;;;;;;;;;;;;;;;-143.48;59.36;77815.84;5134819;27;19946;-31
2022/11/04 11:53:34;;;;;;;;;;;;;;;-143.48;49.09;77433.16;5134368;27;19985;-32
2022/11/04 11:55:59;;;;;;;;;;;;;;;-143.48;48.30;77407.38;5134818;27;20370;-32
2022/11/04 11:58:58;;;;;;;;;;;;;;;-143.48;47.74;77286.44;5134801;27;19918;-31
2022/11/04 12:01:29;;;;;;;;;;;;;;;-143.48;49.10;77538.25;5078954;27;20422;-32
2022/11/04 12:03:54;;;;;;;;;;;;;;;-143.48;48.69;77554.13;5134830;27;19933;-32
2022/11/04 12:06:19;;;;;;;;;;;;;;;-143.48;52.51;77659.22;5134601;27;20369;-36
2022/11/04 12:08:49;;;;;;;;;;;;;;;-143.48;50.15;77566.00;5134908;27;19912;-31
2022/11/04 12:11:17;;;;;;;;;;;;;;;-143.48;51.17;77619.56;5134993;27;20006;-32
2022/11/04 12:13:54;;;;;;;;;;;;;;;-143.48;55.52;77760.34;5134919;27;20374;-31
2022/11/04 12:16:22;;;;;;;;;;;;;;;-143.48;56.03;77694.91;5134572;27;19924;-30
2022/11/04 12:18:52;;;;;;;;;;;;;;;-143.48;48.09;77403.44;5134323;27;20443;-31
2022/11/04 12:21:32;;;;;;;;;;;;;;;-143.48;46.55;77369.72;5135099;28;19912;-31
2022/11/04 12:23:58;;;;;;;;;;;;;;;-143.48;50.91;77579.91;5134804;28;19911;-31
2022/11/04 12:26:32;;;;;;;;;;;;;;;-143.48;54.96;77734.56;5134745;28;19912;-31
2022/11/04 12:29:00;;;;;;;;;;;;;;;-143.48;56.91;77801.97;5135069;28;20007;-30
2022/11/04 12:31:44;;;;;;;;;;;;;;;-143.48;56.70;77879.31;5116326;28;19912;-30
2022/11/04 12:34:29;;;;;;;;;;;;;;;-143.48;60.02;77893.19;5135293;28;19964;-30
2022/11/04 12:37:10;;;;;;;;;;;;;;;-143.48;60.60;77926.91;5134601;28;20002;-32
2022/11/04 12:39:47;;;;;;;;;;;;;;;-143.48;59.87;77946.72;5134684;28;20396;-32
2022/11/04 12:42:20;;;;;;;;;;;;;;;-143.48;61.38;77980.44;5134617;28;20374;-32
2022/11/04 12:44:52;;;;;;;;;;;;;;;-143.48;61.86;77996.31;5134700;28;20293;-32
2022/11/04 12:47:18;;;;;;;;;;;;;;;-143.48;63.27;78008.22;5134915;28;19951;-32
2022/11/04 12:49:46;;;;;;;;;;;;;;;-143.48;63.67;77974.50;5134626;28;20011;-30
2022/11/04 12:52:26;;;;;;;;;;;;;;;-143.48;65.05;77974.50;5134573;28;19911;-32
2022/11/04 12:54:57;;;;;;;;;;;;;;;-143.48;66.65;77976.47;5134746;28;19911;-30
2022/11/04 12:57:29;;;;;;;;;;;;;;;-143.48;68.37;78022.09;5134960;28;19911;-30
2022/11/04 13:00:05;;;;;;;;;;;;;;;-143.48;68.69;78024.06;5134373;27;20018;-30
2022/11/04 13:02:38;;;;;;;;;;;;;;;-143.48;68.69;78000.28;5133573;28;19976;-30
2022/11/04 13:05:21;;;;;;;;;;;;;;;-143.48;68.35;78028.03;5133954;28;20010;-30